Time;durP1;ratioP1;P1;durP2;ratioP2;P2;SDS_P1;SDS_P2;PMS_P1;PMS_P2;Temp;Humidity;BMP_temperature;BMP_pressure;BME280_temperature;BME280_humidity;BME280_pressure;Samples;Min_cycle;Max_cycle;Signal;HPM_P1;HPM_P2
2024/01/15 00:01:21;;;;;;;15.82;5.82;;;;;;;5.36;63.79;100290.44;4917688;28;124392;-68
2024/01/15 00:03:48;;;;;;;16.70;5.35;;;;;;;5.36;64.07;100287.81;4923882;28;114332;-69
2024/01/15 00:06:16;;;;;;;11.02;5.07;;;;;;;5.36;63.89;100282.56;4914878;28;114333;-69
2024/01/15 00:08:43;;;;;;;10.77;4.85;;;;;;;5.35;63.86;100281.72;4907258;28;123309;-69
2024/01/15 00:11:11;;;;;;;10.98;5.10;;;;;;;5.34;63.77;100274.72;4914410;28;123901;-69
2024/01/15 00:13:38;;;;;;;12.50;4.88;;;;;;;5.33;63.71;100274.78;4928820;28;114170;-69
2024/01/15 00:16:05;;;;;;;9.65;4.38;;;;;;;5.34;64.07;100273.88;4912521;28;115899;-69
2024/01/15 00:18:32;;;;;;;9.98;4.03;;;;;;;5.33;63.70;100266.91;4917679;28;123506;-69
2024/01/15 00:21:00;;;;;;;9.75;4.00;;;;;;;5.33;64.02;100266.91;4906648;28;123920;-69
2024/01/15 00:23:27;;;;;;;10.93;4.07;;;;;;;5.33;63.90;100261.66;4922386;28;114476;-69
2024/01/15 00:25:55;;;;;;;9.43;3.40;;;;;;;5.32;64.25;100260.78;4914533;28;114056;-69
2024/01/15 00:28:23;;;;;;;7.82;3.08;;;;;;;5.32;64.02;100266.03;4903803;28;123105;-69
2024/01/15 00:30:50;;;;;;;8.27;3.75;;;;;;;5.31;63.80;100258.22;4917099;28;122877;-69
2024/01/15 00:33:17;;;;;;;9.75;4.00;;;;;;;5.31;63.93;100266.09;4930337;28;115546;-69
2024/01/15 00:35:45;;;;;;;8.93;4.20;;;;;;;5.31;63.89;100258.22;4910765;28;114859;-69
2024/01/15 00:38:12;;;;;;;9.82;3.30;;;;;;;5.33;64.34;100261.66;4930973;28;125538;-69
2024/01/15 00:40:40;;;;;;;7.53;4.07;;;;;;;5.32;64.04;100255.53;4911398;28;124555;-69
2024/01/15 00:43:07;;;;;;;8.60;3.83;;;;;;;5.31;63.90;100255.59;4902929;28;113435;-69
2024/01/15 00:45:35;;;;;;;9.85;3.80;;;;;;;5.31;63.86;100242.47;4922649;28;113974;-69
2024/01/15 00:48:02;;;;;;;9.00;3.45;;;;;;;5.29;64.17;100241.66;4920362;28;124140;-69
2024/01/15 00:50:31;;;;;;;10.93;4.82;;;;;;;5.30;64.03;100235.50;4896539;28;123778;-69
2024/01/15 00:52:58;;;;;;;8.32;4.68;;;;;;;5.29;63.98;100239.03;4929395;28;114610;-69
2024/01/15 00:55:25;;;;;;;7.63;4.45;;;;;;;5.28;64.10;100232.94;4898068;28;114202;-68
2024/01/15 00:57:53;;;;;;;8.38;3.85;;;;;;;5.28;63.99;100232.06;4911201;28;124128;-68
2024/01/15 01:00:20;;;;;;;7.10;4.38;;;;;;;5.26;63.96;100235.59;4922428;28;124001;-69
2024/01/15 01:02:48;;;;;;;7.40;4.28;;;;;;;5.25;64.33;100227.75;4926814;28;114407;-69
2024/01/15 01:05:15;;;;;;;7.15;4.13;;;;;;;5.23;64.08;100230.44;4920688;28;114348;-69
2024/01/15 01:07:42;;;;;;;7.57;3.58;;;;;;;5.22;63.87;100227.88;4922555;28;125823;-68
2024/01/15 01:10:10;;;;;;;6.45;3.60;;;;;;;5.20;64.23;100230.56;4916247;28;123061;-69
2024/01/15 01:12:37;;;;;;;6.32;3.53;;;;;;;5.19;63.90;100226.19;4915257;28;114499;-69
2024/01/15 01:15:05;;;;;;;6.55;3.40;;;;;;;5.15;63.75;100221.97;4924926;28;113950;-69
2024/01/15 01:17:32;;;;;;;6.63;3.55;;;;;;;5.15;63.81;100221.97;4913064;28;122889;-69
2024/01/15 01:20:00;;;;;;;6.15;3.72;;;;;;;5.12;63.73;100216.81;4897479;28;122646;-69
2024/01/15 01:22:30;;;;;;;7.40;4.03;;;;;;;5.09;63.76;100216.94;4921982;28;115230;-69
2024/01/15 01:24:57;;;;;;;6.30;3.40;;;;;;;5.06;64.07;100222.25;4916504;28;114420;-69
2024/01/15 01:27:25;;;;;;;5.82;3.40;;;;;;;5.04;63.88;100224.09;4903138;28;123340;-68
2024/01/15 01:29:52;;;;;;;9.10;3.63;;;;;;;5.02;63.83;100220.66;4923687;28;124309;-69
2024/01/15 01:32:20;;;;;;;8.50;3.33;;;;;;;4.99;63.93;100220.75;4927446;28;114643;-69
2024/01/15 01:34:47;;;;;;;6.28;2.63;;;;;;;4.96;63.85;100231.34;4922006;28;114128;-69
2024/01/15 01:37:15;;;;;;;11.48;2.97;;;;;;;4.93;63.78;100231.44;4925894;28;123949;-69
2024/01/15 01:39:43;;;;;;;6.80;2.75;;;;;;;4.90;63.87;100226.28;4928854;28;124625;-68
2024/01/15 01:42:11;;;;;;;6.40;3.20;;;;;;;4.87;64.00;100222.84;4916944;28;114062;-68
2024/01/15 01:44:38;;;;;;;5.72;3.10;;;;;;;4.85;63.58;100224.66;4917011;28;113704;-69
2024/01/15 01:47:06;;;;;;;8.48;3.35;;;;;;;4.81;63.85;100228.28;4913743;28;124094;-68
2024/01/15 01:49:35;;;;;;;7.65;2.85;;;;;;;4.80;64.21;100230.97;4914273;28;124556;-68
2024/01/15 01:52:05;;;;;;;8.77;3.40;;;;;;;4.77;63.88;100231.91;4897007;28;114560;-69
2024/01/15 01:54:35;;;;;;;8.50;3.53;;;;;;;4.76;63.95;100230.19;4897371;28;113837;-69
2024/01/15 01:57:05;;;;;;;9.63;3.28;;;;;;;4.73;63.98;100235.56;4903357;28;122968;-68
2024/01/15 01:59:34;;;;;;;10.18;3.20;;;;;;;4.73;63.76;100230.31;4917110;28;124103;-69
2024/01/15 02:02:03;;;;;;;9.95;2.85;;;;;;;4.70;64.19;100238.25;4930996;28;113955;-69
2024/01/15 02:04:32;;;;;;;7.43;3.08;;;;;;;4.68;63.73;100237.44;4915950;28;114219;-69
2024/01/15 02:07:00;;;;;;;8.50;2.72;;;;;;;4.67;63.99;100235.72;4920810;28;124069;-69
2024/01/15 02:09:27;;;;;;;8.93;3.03;;;;;;;4.66;63.79;100239.25;4919141;28;124066;-69
2024/01/15 02:11:56;;;;;;;6.50;2.78;;;;;;;4.63;63.92;100234.09;4914562;28;116502;-69
2024/01/15 02:14:23;;;;;;;5.80;2.38;;;;;;;4.61;63.64;100231.50;4915607;28;115318;-69
2024/01/15 02:16:51;;;;;;;6.47;2.30;;;;;;;4.60;63.90;100223.72;4910814;28;123704;-69
2024/01/15 02:19:18;;;;;;;6.05;2.20;;;;;;;4.59;63.84;100222.00;4919454;28;124327;-69
2024/01/15 02:21:46;;;;;;;4.25;2.10;;;;;;;4.57;63.75;100223.81;4920375;28;113131;-69
2024/01/15 02:24:13;;;;;;;6.03;1.83;;;;;;;4.58;63.82;100220.28;4910882;28;113008;-69
2024/01/15 02:26:41;;;;;;;6.07;1.75;;;;;;;4.57;64.01;100223.81;4913538;28;124368;-69
2024/01/15 02:29:08;;;;;;;4.85;1.30;;;;;;;4.54;63.93;100218.63;4924931;28;123768;-69
2024/01/15 02:31:36;;;;;;;5.75;1.50;;;;;;;4.52;64.02;100230.94;4921537;28;114245;-69
2024/01/15 02:34:04;;;;;;;3.83;1.40;;;;;;;4.52;63.98;100230.94;4916525;28;114418;-69
2024/01/15 02:36:32;;;;;;;2.85;1.38;;;;;;;4.51;64.09;100218.75;4927787;28;123824;-69
2024/01/15 02:38:59;;;;;;;5.68;1.35;;;;;;;4.49;63.91;100217.03;4926105;28;122893;-69
2024/01/15 02:41:26;;;;;;;4.85;1.35;;;;;;;4.48;63.78;100217.94;4895944;28;114416;-69
2024/01/15 02:43:53;;;;;;;4.45;1.00;;;;;;;4.47;63.75;100218.84;4896019;28;113849;-69
2024/01/15 02:46:21;;;;;;;1.90;0.98;;;;;;;4.47;63.80;100218.84;4880459;28;122921;-69
2024/01/15 02:48:48;;;;;;;2.55;1.00;;;;;;;4.46;64.25;100211.88;4906996;28;123709;-69
2024/01/15 02:51:15;;;;;;;2.38;1.10;;;;;;;4.46;64.13;100211.88;4905749;28;115496;-69
2024/01/15 02:53:42;;;;;;;5.85;0.93;;;;;;;4.45;63.94;100220.66;4903152;28;113353;-69
2024/01/15 02:56:10;;;;;;;4.03;1.00;;;;;;;4.45;64.03;100210.16;4904758;28;123330;-69
2024/01/15 02:58:37;;;;;;;5.47;1.08;;;;;;;4.45;63.88;100225.88;4911274;28;122803;-69
2024/01/15 03:01:05;;;;;;;5.32;1.30;;;;;;;4.44;64.05;100221.53;4920821;28;114936;-69
2024/01/15 03:03:33;;;;;;;2.72;1.13;;;;;;;4.43;64.06;100222.47;4920809;28;114908;-69
2024/01/15 03:06:02;;;;;;;2.60;1.00;;;;;;;4.42;64.05;100215.47;4913288;28;123191;-69
2024/01/15 03:08:30;;;;;;;3.75;1.10;;;;;;;4.42;63.99;100225.97;4912036;28;123332;-69
2024/01/15 03:10:57;;;;;;;3.97;1.15;;;;;;;4.40;64.00;100217.28;4928240;28;114199;-69
2024/01/15 03:13:24;;;;;;;2.38;0.80;;;;;;;4.39;63.96;100220.84;4905608;28;114085;-69
2024/01/15 03:15:52;;;;;;;2.83;0.80;;;;;;;4.37;63.97;100220.03;4918770;28;124795;-69
2024/01/15 03:18:19;;;;;;;5.00;1.10;;;;;;;4.37;63.92;100225.28;4927206;28;123930;-69
2024/01/15 03:20:46;;;;;;;3.70;1.33;;;;;;;4.35;63.85;100219.22;4930930;28;114467;-69
2024/01/15 03:23:13;;;;;;;3.03;0.80;;;;;;;4.34;63.75;100212.25;4923861;28;113886;-69
2024/01/15 03:25:40;;;;;;;3.05;0.90;;;;;;;4.33;63.79;100218.38;4925151;28;124301;-69
2024/01/15 03:28:08;;;;;;;3.55;1.00;;;;;;;4.33;63.88;100221.00;4912084;28;123823;-69
2024/01/15 03:30:35;;;;;;;5.40;1.08;;;;;;;4.32;63.88;100221.06;4912621;28;114256;-69
2024/01/15 03:33:02;;;;;;;4.35;0.77;;;;;;;4.31;63.75;100217.56;4917892;28;114097;-69
2024/01/15 03:35:30;;;;;;;3.08;0.77;;;;;;;4.30;63.93;100221.09;4911852;28;122909;-69
2024/01/15 03:37:58;;;;;;;3.88;0.68;;;;;;;4.29;64.05;100214.13;4922608;28;123886;-69
2024/01/15 03:40:26;;;;;;;6.50;1.10;;;;;;;4.28;63.72;100208.03;4914595;28;113135;-69
2024/01/15 03:42:54;;;;;;;1.55;0.80;;;;;;;4.28;64.01;100202.78;4909853;28;113313;-69
2024/01/15 03:45:21;;;;;;;3.85;0.90;;;;;;;4.29;63.92;100198.41;4923929;28;124019;-69
2024/01/15 03:47:48;;;;;;;1.70;0.77;;;;;;;4.28;63.86;100207.19;4924348;28;123717;-69
2024/01/15 03:50:16;;;;;;;3.47;1.00;;;;;;;4.29;63.79;100203.66;4914602;28;115318;-69
2024/01/15 03:52:43;;;;;;;5.40;1.02;;;;;;;4.30;64.05;100200.13;4914238;28;115084;-70
2024/01/15 03:55:10;;;;;;;5.60;0.85;;;;;;;4.31;64.11;100201.84;4909301;28;124237;-69
2024/01/15 03:57:37;;;;;;;3.88;1.10;;;;;;;4.32;64.11;100203.56;4911426;28;123917;-69
2024/01/15 04:00:05;;;;;;;4.70;1.10;;;;;;;4.31;64.00;100201.84;4918768;28;114652;-69
2024/01/15 04:02:33;;;;;;;1.83;0.80;;;;;;;4.32;63.99;100200.09;4916755;28;115552;-69
2024/01/15 04:05:00;;;;;;;2.53;0.70;;;;;;;4.32;64.05;100200.94;4897877;28;124654;-70
2024/01/15 04:07:27;;;;;;;2.35;0.90;;;;;;;4.31;63.72;100191.34;4911583;28;124703;-70
2024/01/15 04:09:55;;;;;;;3.92;0.95;;;;;;;4.30;63.87;100189.66;4911694;28;114329;-70
2024/01/15 04:12:23;;;;;;;1.77;0.75;;;;;;;4.29;63.82;100185.28;4903795;28;114338;-70
2024/01/15 04:14:50;;;;;;;2.33;1.00;;;;;;;4.29;64.03;100191.41;4915926;28;124542;-70
2024/01/15 04:17:18;;;;;;;3.15;0.98;;;;;;;4.28;63.78;100181.81;4909685;28;124272;-70
2024/01/15 04:19:45;;;;;;;1.33;0.55;;;;;;;4.27;63.90;100185.34;4913838;28;114617;-70
2024/01/15 04:22:12;;;;;;;5.43;0.70;;;;;;;4.29;63.87;100182.66;4920039;28;113878;-70
2024/01/15 04:24:40;;;;;;;6.57;0.90;;;;;;;4.31;63.89;100180.88;4924005;28;123828;-70
2024/01/15 04:27:07;;;;;;;4.00;0.73;;;;;;;4.31;64.17;100180.88;4912956;28;124293;-69
2024/01/15 04:29:38;;;;;;;5.82;0.90;;;;;;;4.32;63.96;100172.09;4895746;28;113934;-69
2024/01/15 04:32:07;;;;;;;5.85;0.70;;;;;;;4.33;63.88;100165.94;4906894;28;113642;-70
2024/01/15 04:34:36;;;;;;;3.72;0.82;;;;;;;4.33;63.74;100158.09;4896125;28;122910;-69
2024/01/15 04:37:03;;;;;;;7.07;0.80;;;;;;;4.34;63.96;100165.06;4921436;28;124106;-70
2024/01/15 04:39:30;;;;;;;4.72;1.05;;;;;;;4.35;64.08;100160.66;4929665;28;114214;-70
2024/01/15 04:41:58;;;;;;;1.95;0.90;;;;;;;4.34;63.84;100154.56;4904095;28;114434;-69
2024/01/15 04:44:26;;;;;;;7.45;0.82;;;;;;;4.36;64.22;100152.75;4914729;28;122726;-69
2024/01/15 04:46:53;;;;;;;3.97;0.90;;;;;;;4.38;64.27;100152.72;4923136;28;123873;-69
2024/01/15 04:49:21;;;;;;;4.13;0.57;;;;;;;4.38;63.91;100150.94;4916106;28;114799;-69
2024/01/15 04:51:48;;;;;;;3.90;1.00;;;;;;;4.41;64.03;100147.38;4902533;28;114235;-69
2024/01/15 04:54:17;;;;;;;2.58;0.63;;;;;;;4.42;64.17;100142.06;4924407;28;123140;-69
2024/01/15 04:56:45;;;;;;;5.07;1.05;;;;;;;4.43;64.21;100142.94;4895874;28;123754;-69
2024/01/15 04:59:14;;;;;;;3.50;0.82;;;;;;;4.44;64.20;100140.25;4907377;28;114212;-69
2024/01/15 05:01:42;;;;;;;4.43;1.00;;;;;;;4.44;64.08;100145.50;4918358;28;114199;-69
2024/01/15 05:04:09;;;;;;;3.85;0.90;;;;;;;4.44;64.12;100140.25;4922729;28;123264;-69
2024/01/15 05:06:36;;;;;;;1.95;0.75;;;;;;;4.45;64.23;100147.22;4919519;28;123739;-69
2024/01/15 05:09:04;;;;;;;8.60;1.20;;;;;;;4.46;63.99;100151.59;4910904;28;114039;-69
2024/01/15 05:11:31;;;;;;;4.97;0.85;;;;;;;4.49;64.18;100148.84;4915784;28;114379;-73
2024/01/15 05:13:59;;;;;;;2.72;1.10;;;;;;;4.51;63.99;100150.56;4919256;28;124357;-69
2024/01/15 05:16:26;;;;;;;5.90;1.08;;;;;;;4.54;63.89;100145.22;4916856;28;123347;-69
2024/01/15 05:18:53;;;;;;;5.05;1.20;;;;;;;4.57;63.92;100155.63;4920104;28;114039;-69
2024/01/15 05:21:20;;;;;;;1.92;0.90;;;;;;;4.59;64.25;100148.56;4917043;28;114023;-69
2024/01/15 05:23:48;;;;;;;3.53;0.90;;;;;;;4.61;63.98;100146.75;4924079;28;124103;-69
2024/01/15 05:26:15;;;;;;;4.90;1.08;;;;;;;4.64;63.93;100151.91;4923628;28;124166;-70
2024/01/15 05:28:42;;;;;;;3.55;0.70;;;;;;;4.65;64.18;100158.84;4896708;28;114181;-69
2024/01/15 05:31:10;;;;;;;2.22;0.80;;;;;;;4.63;63.86;100147.56;4896344;28;114161;-69
2024/01/15 05:33:38;;;;;;;1.92;0.90;;;;;;;4.63;64.09;100144.94;4905064;28;124638;-70
2024/01/15 05:36:06;;;;;;;2.53;0.80;;;;;;;4.64;64.19;100130.94;4905011;28;123405;-69
2024/01/15 05:38:33;;;;;;;2.97;0.70;;;;;;;4.63;63.80;100135.31;4910814;28;114040;-70
2024/01/15 05:41:00;;;;;;;1.20;0.60;;;;;;;4.63;64.07;100137.06;4917601;28;113822;-69
2024/01/15 05:43:27;;;;;;;2.50;0.90;;;;;;;4.62;63.84;100137.97;4915162;28;123105;-69
2024/01/15 05:45:55;;;;;;;1.60;0.60;;;;;;;4.61;63.92;100133.63;4918351;28;124690;-69
2024/01/15 05:48:22;;;;;;;3.03;0.73;;;;;;;4.61;64.13;100146.75;4903269;28;113784;-69
2024/01/15 05:50:50;;;;;;;4.30;0.88;;;;;;;4.62;63.92;100149.31;4919384;28;114436;-69
2024/01/15 05:53:18;;;;;;;3.33;0.88;;;;;;;4.62;64.06;100137.97;4900192;28;124468;-70
2024/01/15 05:55:45;;;;;;;1.85;0.70;;;;;;;4.62;63.86;100137.97;4900653;28;125198;-69
2024/01/15 05:58:12;;;;;;;3.17;0.80;;;;;;;4.62;63.85;100132.75;4925320;28;114116;-69
2024/01/15 06:00:40;;;;;;;3.45;0.90;;;;;;;4.62;63.97;100122.25;4923323;28;113965;-70
2024/01/15 06:03:07;;;;;;;2.47;1.00;;;;;;;4.63;63.93;100127.44;4922213;28;123926;-70
2024/01/15 06:05:35;;;;;;;2.83;0.90;;;;;;;4.62;63.94;100123.09;4914285;28;123611;-70
2024/01/15 06:08:03;;;;;;;3.05;0.93;;;;;;;4.63;64.16;100123.94;4925320;28;114138;-70
2024/01/15 06:10:30;;;;;;;2.72;0.90;;;;;;;4.64;64.15;100125.69;4920051;28;114273;-70
2024/01/15 06:12:57;;;;;;;2.38;0.70;;;;;;;4.62;63.98;100111.75;4926313;28;124682;-70
2024/01/15 06:15:24;;;;;;;2.28;0.90;;;;;;;4.61;64.12;100115.28;4903894;28;122474;-70
2024/01/15 06:17:52;;;;;;;2.33;1.10;;;;;;;4.59;64.05;100111.84;4896852;28;115346;-70
2024/01/15 06:20:19;;;;;;;1.20;0.73;;;;;;;4.57;63.66;100104.03;4929105;28;114942;-70
2024/01/15 06:22:46;;;;;;;2.45;0.70;;;;;;;4.55;64.05;100110.22;4925712;28;124726;-70
2024/01/15 06:25:13;;;;;;;5.35;0.93;;;;;;;4.55;63.86;100110.22;4914562;28;123164;-70
2024/01/15 06:27:42;;;;;;;2.83;0.90;;;;;;;4.55;64.09;100110.22;4925169;28;113747;-70
2024/01/15 06:30:10;;;;;;;2.85;1.23;;;;;;;4.54;63.94;100113.75;4923623;28;113842;-70
2024/01/15 06:32:37;;;;;;;2.08;1.10;;;;;;;4.53;63.87;100106.81;4923411;28;125108;-70
2024/01/15 06:35:05;;;;;;;2.00;1.00;;;;;;;4.53;64.10;100115.53;4927172;28;125040;-70
2024/01/15 06:37:32;;;;;;;2.20;1.15;;;;;;;4.52;64.04;100110.31;4923835;28;115010;-69
2024/01/15 06:40:00;;;;;;;4.75;1.17;;;;;;;4.54;64.06;100109.38;4913644;28;113947;-71
2024/01/15 06:42:27;;;;;;;3.65;1.20;;;;;;;4.56;63.86;100111.94;4922138;28;123907;-70
2024/01/15 06:44:54;;;;;;;2.55;1.30;;;;;;;4.57;63.98;100103.19;4907619;28;123763;-70
2024/01/15 06:47:27;;;;;;;2.42;1.10;;;;;;;4.57;64.00;100109.25;4921731;28;113350;-78
2024/01/15 06:49:54;;;;;;;2.05;1.10;;;;;;;4.58;64.22;100100.50;4936920;28;113639;-78
2024/01/15 06:52:23;;;;;;;5.05;1.35;;;;;;;4.58;63.91;100110.16;4931422;28;123147;-78
2024/01/15 06:54:50;;;;;;;1.98;0.90;;;;;;;4.59;64.24;100106.59;4924657;28;123245;-78
2024/01/15 06:57:19;;;;;;;2.80;1.17;;;;;;;4.59;64.37;100106.59;4932987;28;114614;-77
2024/01/15 06:59:47;;;;;;;2.13;1.08;;;;;;;4.60;64.22;100097.84;4923906;28;113560;-77
2024/01/15 07:02:15;;;;;;;2.47;1.10;;;;;;;4.60;63.95;100097.84;4918892;28;124051;-77
2024/01/15 07:04:42;;;;;;;2.88;1.15;;;;;;;4.60;64.14;100100.47;4931166;28;123689;-77
2024/01/15 07:07:10;;;;;;;2.10;1.08;;;;;;;4.59;64.14;100111.84;4924105;28;115708;-77
2024/01/15 07:09:37;;;;;;;2.95;1.17;;;;;;;4.59;64.01;100106.59;4934739;28;114102;-77
2024/01/15 07:12:05;;;;;;;2.83;1.52;;;;;;;4.59;64.22;100107.44;4907615;28;123635;-77
2024/01/15 07:14:32;;;;;;;2.00;1.38;;;;;;;4.60;64.00;100108.34;4931570;28;124128;-77
2024/01/15 07:17:06;;;;;;;4.93;1.48;;;;;;;4.60;64.28;100118.81;4904368;28;113510;-77
2024/01/15 07:19:33;;;;;;;5.65;1.80;;;;;;;4.60;63.97;100108.34;4919352;28;114634;-77
2024/01/15 07:22:07;;;;;;;3.15;1.60;;;;;;;4.60;64.00;100103.09;4928860;28;123164;-77
2024/01/15 07:24:35;;;;;;;4.18;1.77;;;;;;;4.61;63.97;100094.28;4908254;28;123074;-77
2024/01/15 07:27:04;;;;;;;5.20;2.00;;;;;;;4.62;64.34;100091.63;4932422;28;114972;-77
2024/01/15 07:29:33;;;;;;;7.13;2.08;;;;;;;4.63;64.18;100090.72;4909283;28;113133;-77
2024/01/15 07:32:00;;;;;;;3.58;2.15;;;;;;;4.64;64.20;100091.59;4918032;28;123865;-77
2024/01/15 07:34:29;;;;;;;3.78;2.03;;;;;;;4.63;64.21;100092.47;4919073;28;123939;-77
2024/01/15 07:36:57;;;;;;;3.63;2.05;;;;;;;4.63;64.19;100087.22;4930376;28;114074;-77
2024/01/15 07:39:25;;;;;;;4.82;2.03;;;;;;;4.64;64.26;100094.19;4917786;28;114250;-77
2024/01/15 07:41:52;;;;;;;4.82;2.28;;;;;;;4.64;64.14;100099.44;4919103;28;123719;-77
2024/01/15 07:44:20;;;;;;;4.53;2.28;;;;;;;4.66;64.03;100113.38;4902666;28;124919;-76
2024/01/15 07:46:48;;;;;;;4.47;2.63;;;;;;;4.67;64.14;100120.31;4922762;28;114247;-77
2024/01/15 07:49:17;;;;;;;4.30;2.33;;;;;;;4.66;63.98;100134.34;4915178;28;114100;-77
2024/01/15 07:51:45;;;;;;;3.97;2.30;;;;;;;4.66;64.32;100134.34;4917277;28;124318;-77
2024/01/15 07:54:12;;;;;;;4.05;2.55;;;;;;;4.65;64.23;100132.63;4923990;28;124066;-77
2024/01/15 07:57:04;;;;;;;6.65;2.38;;;;;;;4.64;64.32;100136.16;4906338;28;115121;-77
2024/01/15 07:59:31;;;;;;;4.85;2.03;;;;;;;4.63;63.70;100131.81;4911686;28;114606;-77
2024/01/15 08:01:59;;;;;;;5.03;2.28;;;;;;;4.63;64.45;100113.47;4936272;28;125429;-77
2024/01/15 08:04:27;;;;;;;2.38;1.58;;;;;;;4.64;64.36;100125.69;4920285;28;124582;-77
2024/01/15 08:06:58;;;;;;;3.33;1.90;;;;;;;4.65;63.91;100137.88;4921796;28;114351;-77
2024/01/15 08:09:25;;;;;;;5.20;1.92;;;;;;;4.67;64.49;100130.81;4919216;28;114891;-77
2024/01/15 08:11:52;;;;;;;3.50;1.77;;;;;;;4.66;64.01;100129.09;4904790;28;124385;-77
2024/01/15 08:14:20;;;;;;;3.33;1.70;;;;;;;4.67;64.15;100141.28;4919022;28;122539;-77
2024/01/15 08:16:48;;;;;;;3.17;1.25;;;;;;;4.68;64.07;100135.16;4906915;28;113183;-76
2024/01/15 08:19:15;;;;;;;2.40;1.40;;;;;;;4.68;64.39;100137.78;4932324;28;112952;-77
2024/01/15 08:21:43;;;;;;;2.45;1.50;;;;;;;4.69;64.28;100139.50;4933067;28;124489;-77
2024/01/15 08:24:10;;;;;;;2.72;1.50;;;;;;;4.71;64.10;100132.44;4924833;28;124333;-77
2024/01/15 08:26:37;;;;;;;3.35;1.52;;;;;;;4.73;64.44;100146.38;4932235;28;114250;-77
2024/01/15 08:29:04;;;;;;;3.45;1.50;;;;;;;4.73;64.41;100141.13;4920834;28;114080;-77
2024/01/15 08:31:39;;;;;;;2.22;1.23;;;;;;;4.72;64.11;100144.63;4915943;28;125097;-77
2024/01/15 08:34:06;;;;;;;3.77;1.73;;;;;;;4.73;63.96;100146.38;4921997;28;124389;-77
2024/01/15 08:36:36;;;;;;;2.72;1.50;;;;;;;4.72;64.26;100143.78;4919301;28;114695;-78
2024/01/15 08:39:04;;;;;;;2.88;1.40;;;;;;;4.70;63.94;100141.22;4919889;28;114291;-77
2024/01/15 08:41:33;;;;;;;3.22;1.88;;;;;;;4.70;64.20;100146.44;4932763;28;123799;-77
2024/01/15 08:44:00;;;;;;;2.90;1.80;;;;;;;4.71;64.08;100148.19;4919458;28;123664;-77
2024/01/15 08:46:33;;;;;;;3.10;1.73;;;;;;;4.70;64.19;100151.69;4916754;28;115460;-78
2024/01/15 08:49:00;;;;;;;3.30;1.52;;;;;;;4.68;64.20;100151.75;4902311;28;114196;-77
2024/01/15 08:51:27;;;;;;;2.50;1.60;;;;;;;4.66;64.20;100145.69;4918632;28;125398;-77
2024/01/15 08:54:04;;;;;;;2.13;1.30;;;;;;;4.67;63.99;100139.56;4925989;28;124084;-77
2024/01/15 08:56:31;;;;;;;2.17;1.38;;;;;;;4.68;63.97;100148.28;4909034;28;113551;-77
2024/01/15 08:59:00;;;;;;;3.20;1.40;;;;;;;4.70;64.01;100156.94;4917900;28;113726;-77
2024/01/15 09:01:27;;;;;;;2.67;1.40;;;;;;;4.68;63.97;100158.75;4916756;28;124057;-77
2024/01/15 09:03:56;;;;;;;1.58;1.05;;;;;;;4.68;64.38;100164.00;4919838;28;123584;-79
2024/01/15 09:06:23;;;;;;;2.25;1.30;;;;;;;4.67;64.21;100178.00;4923238;28;114052;-77
2024/01/15 09:08:50;;;;;;;2.88;1.10;;;;;;;4.65;64.18;100174.59;4902994;28;113725;-77
2024/01/15 09:11:17;;;;;;;1.30;0.90;;;;;;;4.64;63.88;100172.88;4915946;28;124272;-78
2024/01/15 09:13:51;;;;;;;2.97;0.80;;;;;;;4.62;64.04;100185.19;4914389;28;123948;-78
2024/01/15 09:16:19;;;;;;;2.45;0.93;;;;;;;4.62;63.95;100177.31;4899899;28;114513;-78
2024/01/15 09:18:53;;;;;;;1.70;0.68;;;;;;;4.60;63.85;100156.38;4916418;28;114536;-79
2024/01/15 09:21:20;;;;;;;1.40;0.70;;;;;;;4.60;63.99;100155.53;4924775;28;123963;-78
2024/01/15 09:23:48;;;;;;;1.73;0.60;;;;;;;4.60;64.20;100150.28;4926499;28;123782;-78
2024/01/15 09:26:16;;;;;;;1.10;0.80;;;;;;;4.59;64.17;100144.16;4913090;28;114009;-79
2024/01/15 09:28:43;;;;;;;2.53;1.60;;;;;;;4.60;63.94;100147.66;4916154;28;113594;-78
2024/01/15 09:31:10;;;;;;;3.95;2.38;;;;;;;4.58;64.25;100146.88;4924959;28;124476;-79
2024/01/15 09:33:40;;;;;;;4.15;2.13;;;;;;;4.60;64.36;100160.78;4920238;28;124153;-79
2024/01/15 09:36:08;;;;;;;3.08;1.63;;;;;;;4.61;63.93;100157.22;4909233;28;115294;-78
2024/01/15 09:38:36;;;;;;;2.67;1.30;;;;;;;4.59;64.37;100154.66;4930824;28;114426;-79
2024/01/15 09:41:03;;;;;;;2.58;1.33;;;;;;;4.59;64.29;100148.56;4930517;28;123777;-79
2024/01/15 09:43:31;;;;;;;2.80;1.27;;;;;;;4.59;64.23;100159.91;4924032;28;124019;-78
2024/01/15 09:46:00;;;;;;;2.60;1.25;;;;;;;4.59;64.26;100164.28;4912900;28;113374;-79
2024/01/15 09:48:27;;;;;;;6.07;2.15;;;;;;;4.59;64.29;100177.41;4916365;28;114612;-79
2024/01/15 09:50:58;;;;;;;11.20;3.15;;;;;;;4.59;64.26;100180.88;4919119;28;124284;-79
2024/01/15 09:53:35;;;;;;;4.25;2.00;;;;;;;4.61;64.37;100172.97;4899821;28;125459;-78
2024/01/15 09:56:03;;;;;;;3.08;1.48;;;;;;;4.61;64.35;100175.59;4917018;28;114642;-78
2024/01/15 09:58:31;;;;;;;3.15;1.70;;;;;;;4.63;64.06;100171.16;4927125;28;114181;-78
2024/01/15 10:00:59;;;;;;;3.22;1.73;;;;;;;4.64;64.15;100175.50;4903128;28;124122;-78
2024/01/15 10:03:28;;;;;;;3.10;1.88;;;;;;;4.65;64.31;100169.34;4926485;28;124558;-78
2024/01/15 10:05:59;;;;;;;3.08;2.28;;;;;;;4.68;64.00;100174.50;4919313;28;114456;-78
2024/01/15 10:08:26;;;;;;;4.05;2.40;;;;;;;4.70;64.34;100172.69;4914944;28;113814;-78
2024/01/15 10:10:53;;;;;;;3.58;2.15;;;;;;;4.72;64.33;100165.63;4922583;28;124481;-78
2024/01/15 10:13:22;;;;;;;4.28;2.67;;;;;;;4.75;64.34;100155.03;4928260;28;123896;-77
2024/01/15 10:16:03;;;;;;;4.78;2.45;;;;;;;4.77;64.20;100153.22;4922376;28;114895;-78
2024/01/15 10:18:31;;;;;;;3.55;2.47;;;;;;;4.82;64.29;100156.56;4925329;28;113753;-78
2024/01/15 10:21:03;;;;;;;4.07;2.45;;;;;;;4.91;64.65;100149.28;4915420;28;124364;-78
2024/01/15 10:23:32;;;;;;;5.07;2.47;;;;;;;4.99;64.87;100152.50;4930339;28;123642;-78
2024/01/15 10:25:59;;;;;;;3.25;2.30;;;;;;;5.08;64.55;100152.22;4917357;28;115838;-77
2024/01/15 10:28:27;;;;;;;4.05;1.98;;;;;;;5.12;64.31;100159.06;4917490;28;114657;-77
2024/01/15 10:30:58;;;;;;;5.30;1.92;;;;;;;5.14;64.44;100157.28;4927505;28;123976;-78
2024/01/15 10:33:27;;;;;;;4.05;2.00;;;;;;;5.16;64.10;100165.06;4917685;28;125161;-78
2024/01/15 10:35:56;;;;;;;3.17;1.63;;;;;;;5.15;64.08;100164.22;4906521;28;113603;-78
2024/01/15 10:38:24;;;;;;;2.38;1.33;;;;;;;5.14;63.96;100162.53;4916828;28;114058;-78
2024/01/15 10:40:57;;;;;;;4.80;1.67;;;;;;;5.13;64.04;100154.69;4913822;28;124423;-78
2024/01/15 10:43:24;;;;;;;4.43;1.20;;;;;;;5.15;64.16;100152.88;4900786;28;123545;-75
2024/01/15 10:45:57;;;;;;;4.20;1.17;;;;;;;5.15;64.13;100143.22;4920982;28;113653;-76
2024/01/15 10:48:24;;;;;;;4.82;1.17;;;;;;;5.16;64.17;100152.81;4917601;28;114646;-76
2024/01/15 10:50:56;;;;;;;2.58;0.70;;;;;;;5.16;64.24;100150.19;4928237;28;124849;-76
2024/01/15 10:53:27;;;;;;;4.25;0.75;;;;;;;5.18;64.31;100143.13;4919752;28;124284;-75
2024/01/15 10:55:56;;;;;;;4.88;1.00;;;;;;;5.20;64.30;100143.94;4918155;28;113504;-76
2024/01/15 10:58:28;;;;;;;4.55;0.90;;;;;;;5.23;64.17;100141.19;4918983;28;113445;-76
2024/01/15 11:00:56;;;;;;;4.22;1.00;;;;;;;5.26;64.21;100145.50;4915414;28;124579;-75
2024/01/15 11:03:23;;;;;;;2.35;0.90;;;;;;;5.30;64.10;100141.00;4933039;28;124747;-75
2024/01/15 11:05:53;;;;;;;3.97;0.80;;;;;;;5.31;64.34;100137.44;4912378;28;113057;-76
2024/01/15 11:08:29;;;;;;;2.10;0.90;;;;;;;5.35;64.19;100149.53;4939473;28;113922;-76
2024/01/15 11:10:57;;;;;;;3.22;0.93;;;;;;;5.37;64.15;100147.72;4938714;28;123554;-76
2024/01/15 11:13:31;;;;;;;3.75;1.00;;;;;;;5.38;64.35;100154.69;4907266;28;123578;-76
2024/01/15 11:16:06;;;;;;;1.63;0.60;;;;;;;5.39;64.00;100156.44;4926271;28;115705;-75
2024/01/15 11:19:06;;;;;;;1.83;0.80;;;;;;;5.38;64.36;100149.44;4897424;28;113735;-76
2024/01/15 11:21:42;;;;;;;2.78;0.82;;;;;;;5.43;64.36;100147.53;4920394;28;123333;-76
2024/01/15 11:24:12;;;;;;;2.25;0.75;;;;;;;5.45;64.23;100145.69;4924963;28;124705;-75
2024/01/15 11:26:41;;;;;;;1.23;0.60;;;;;;;5.48;64.22;100148.19;4914971;28;115397;-75
2024/01/15 11:29:34;;;;;;;2.30;0.75;;;;;;;5.51;64.41;100145.47;4929209;28;114351;-75